Time;durP1;ratioP1;P1;durP2;ratioP2;P2;SDS_P1;SDS_P2;PMS_P1;PMS_P2;Temp;Humidity;BMP_temperature;BMP_pressure;BME280_temperature;BME280_humidity;BME280_pressure;Samples;Min_cycle;Max_cycle;Signal;HPM_P1;HPM_P2
2022/11/23 00:00:36;;;;;;;17.15;13.02;;;4.90;99.90;;;;;;4992780;28;20610;-73
2022/11/23 00:03:02;;;;;;;16.35;12.32;;;4.80;99.90;;;;;;4999687;28;20178;-73
2022/11/23 00:05:29;;;;;;;16.77;12.98;;;4.80;99.90;;;;;;4993774;28;20297;-73
2022/11/23 00:07:55;;;;;;;14.55;12.00;;;4.90;99.90;;;;;;4993760;28;20232;-73
2022/11/23 00:10:21;;;;;;;17.65;12.73;;;4.90;99.90;;;;;;4991761;28;20586;-73
2022/11/23 00:12:47;;;;;;;20.50;13.35;;;4.90;99.90;;;;;;4993210;28;20201;-73
2022/11/23 00:15:13;;;;;;;18.95;13.00;;;4.90;99.90;;;;;;4994302;28;20660;-73
2022/11/23 00:17:40;;;;;;;17.77;12.13;;;5.00;99.90;;;;;;4987827;28;20260;-72
2022/11/23 00:20:07;;;;;;;16.08;11.82;;;5.00;99.90;;;;;;4993534;28;20189;-72
2022/11/23 00:22:33;;;;;;;16.25;12.13;;;5.00;99.90;;;;;;4994287;28;20208;-73
2022/11/23 00:24:58;;;;;;;17.10;12.82;;;5.00;99.90;;;;;;5000531;28;20576;-73
2022/11/23 00:27:24;;;;;;;19.30;12.65;;;5.00;99.90;;;;;;4992392;28;20260;-73
2022/11/23 00:29:50;;;;;;;15.52;11.00;;;5.00;99.90;;;;;;4993245;28;20273;-73
2022/11/23 00:32:15;;;;;;;16.23;12.48;;;5.00;99.90;;;;;;4990512;28;20189;-73
2022/11/23 00:34:41;;;;;;;15.23;12.13;;;4.90;99.90;;;;;;4992966;28;20219;-73
2022/11/23 00:37:06;;;;;;;18.20;12.40;;;5.00;99.90;;;;;;4993682;28;20217;-73
2022/11/23 00:39:32;;;;;;;17.40;13.07;;;4.80;99.90;;;;;;4990111;28;20185;-72
2022/11/23 00:41:58;;;;;;;16.45;12.70;;;4.90;99.90;;;;;;4993659;28;20251;-73
2022/11/23 00:44:23;;;;;;;15.48;12.07;;;4.90;99.90;;;;;;4992558;28;20209;-73
2022/11/23 00:46:49;;;;;;;13.85;11.77;;;5.00;99.90;;;;;;4986938;28;20182;-73
2022/11/23 00:49:15;;;;;;;16.20;12.40;;;4.90;99.90;;;;;;5000313;28;20653;-73
2022/11/23 00:51:40;;;;;;;15.55;11.73;;;4.80;99.90;;;;;;5000936;28;20190;-72
2022/11/23 00:54:06;;;;;;;18.45;12.40;;;4.80;99.90;;;;;;4992344;28;20276;-73
2022/11/23 00:56:34;;;;;;;20.92;14.68;;;4.80;99.90;;;;;;4990659;28;20802;-73
2022/11/23 00:59:01;;;;;;;17.20;12.43;;;4.70;99.90;;;;;;4993089;28;20174;-73
2022/11/23 01:01:33;;;;;;;14.25;11.57;;;4.70;99.90;;;;;;4992770;28;20592;-73
2022/11/23 01:04:00;;;;;;;16.25;12.45;;;4.70;99.90;;;;;;4985146;28;20174;-72
2022/11/23 01:06:29;;;;;;;14.38;12.43;;;4.70;99.90;;;;;;5000839;28;20217;-73
2022/11/23 01:09:02;;;;;;;15.38;12.15;;;4.80;99.90;;;;;;4991080;28;20277;-73
2022/11/23 01:11:29;;;;;;;19.45;11.20;;;4.70;99.90;;;;;;4984008;28;20222;-73
2022/11/23 01:13:55;;;;;;;13.80;11.27;;;4.70;99.90;;;;;;4991067;28;20174;-73
2022/11/23 01:16:24;;;;;;;15.27;11.73;;;4.70;99.90;;;;;;4992797;28;20574;-73
2022/11/23 01:18:53;;;;;;;13.48;10.45;;;4.60;99.90;;;;;;4991413;28;20182;-73
2022/11/23 01:21:19;;;;;;;12.98;10.85;;;4.50;99.90;;;;;;4990690;28;20186;-73
2022/11/23 01:23:45;;;;;;;13.23;11.32;;;4.60;99.90;;;;;;4991961;28;20174;-73
2022/11/23 01:26:10;;;;;;;13.80;10.85;;;4.60;99.90;;;;;;4992517;28;20555;-73
2022/11/23 01:28:38;;;;;;;11.40;10.13;;;4.70;99.90;;;;;;4991627;28;21535;-73
2022/11/23 01:31:09;;;;;;;12.25;10.32;;;4.70;99.90;;;;;;4992318;28;20178;-73
2022/11/23 01:33:36;;;;;;;11.77;9.90;;;4.70;99.90;;;;;;4991774;28;20268;-73
2022/11/23 01:36:12;;;;;;;14.13;11.85;;;4.60;99.90;;;;;;4992144;28;20252;-73
2022/11/23 01:38:38;;;;;;;11.88;10.60;;;4.60;99.90;;;;;;4994770;28;20694;-73
2022/11/23 01:41:05;;;;;;;14.07;11.02;;;4.60;99.90;;;;;;5000906;28;20264;-73
2022/11/23 01:43:30;;;;;;;12.65;9.70;;;4.60;99.90;;;;;;5002802;28;20193;-73
2022/11/23 01:45:58;;;;;;;15.30;10.60;;;4.60;99.90;;;;;;5004086;28;20289;-73
2022/11/23 01:48:55;;;;;;;12.27;9.68;;;4.50;99.90;;;;;;4993329;28;20186;-73
2022/11/23 01:51:29;;;;;;;12.50;10.70;;;4.50;99.90;;;;;;4996242;28;20660;-73
2022/11/23 01:53:59;;;;;;;11.50;9.77;;;4.50;99.90;;;;;;4995703;28;20182;-74
2022/11/23 01:56:29;;;;;;;11.13;9.73;;;4.60;99.90;;;;;;5002045;28;20273;-73
2022/11/23 01:58:58;;;;;;;10.10;9.07;;;4.60;99.90;;;;;;4996489;28;20304;-73
2022/11/23 02:01:24;;;;;;;12.13;10.25;;;4.60;99.90;;;;;;4998858;28;20640;-73
2022/11/23 02:03:50;;;;;;;10.10;9.10;;;4.70;99.90;;;;;;4995526;28;20208;-73
2022/11/23 02:06:18;;;;;;;10.55;9.52;;;4.70;99.90;;;;;;4992771;28;20657;-73
2022/11/23 02:08:44;;;;;;;12.18;10.30;;;4.70;99.90;;;;;;4989998;28;20186;-73
2022/11/23 02:11:12;;;;;;;12.25;10.52;;;4.70;99.90;;;;;;4993302;28;20572;-73
2022/11/23 02:13:39;;;;;;;11.73;9.98;;;4.70;99.90;;;;;;4983146;28;20189;-73
2022/11/23 02:16:05;;;;;;;11.45;10.25;;;4.60;99.90;;;;;;4980828;28;20241;-73
2022/11/23 02:18:33;;;;;;;11.80;10.50;;;4.70;99.90;;;;;;4983700;28;20260;-73
2022/11/23 02:21:01;;;;;;;11.23;9.88;;;4.70;99.90;;;;;;4988477;28;20186;-73
2022/11/23 02:23:37;;;;;;;13.43;10.45;;;4.70;99.90;;;;;;4982245;28;21189;-73
2022/11/23 02:26:12;;;;;;;12.45;9.68;;;4.60;99.90;;;;;;4988700;28;20205;-73
2022/11/23 02:29:00;;;;;;;14.10;10.48;;;4.50;99.90;;;;;;4981919;28;20194;-73
2022/11/23 02:31:26;;;;;;;14.70;10.60;;;4.40;99.90;;;;;;4991819;28;20182;-74
2022/11/23 02:33:52;;;;;;;10.82;9.73;;;4.30;99.90;;;;;;4986591;28;20716;-73
2022/11/23 02:36:35;;;;;;;14.30;11.63;;;4.30;99.90;;;;;;4987991;28;20692;-74
2022/11/23 02:39:07;;;;;;;15.13;10.95;;;4.30;99.90;;;;;;4982607;28;20174;-73
2022/11/23 02:41:53;;;;;;;11.98;10.48;;;4.40;99.90;;;;;;4985115;28;20174;-73
2022/11/23 02:44:33;;;;;;;16.60;10.65;;;4.40;99.90;;;;;;4981397;28;20308;-74
2022/11/23 02:46:59;;;;;;;13.38;10.60;;;4.30;99.90;;;;;;4986045;28;20675;-73
2022/11/23 02:49:24;;;;;;;13.75;11.40;;;4.30;99.90;;;;;;4984549;28;20190;-73
2022/11/23 02:51:51;;;;;;;13.38;11.15;;;4.30;99.90;;;;;;4981282;28;20198;-73
2022/11/23 02:54:17;;;;;;;14.00;11.60;;;4.20;99.90;;;;;;4984096;28;20202;-73
2022/11/23 02:56:42;;;;;;;15.82;11.68;;;4.20;99.90;;;;;;4983980;28;20209;-73
2022/11/23 02:59:08;;;;;;;13.50;11.13;;;4.20;99.90;;;;;;4984085;28;20266;-74
2022/11/23 03:01:34;;;;;;;13.75;11.95;;;4.30;99.90;;;;;;4982137;28;20188;-74
2022/11/23 03:03:59;;;;;;;13.02;10.93;;;4.30;99.90;;;;;;4985147;28;20780;-73
2022/11/23 03:06:25;;;;;;;12.90;11.55;;;4.40;99.90;;;;;;4981690;28;20254;-72
2022/11/23 03:08:50;;;;;;;14.38;10.77;;;4.40;99.90;;;;;;4982440;28;20188;-73
2022/11/23 03:11:16;;;;;;;15.63;11.65;;;4.40;99.90;;;;;;4981566;28;20183;-73
2022/11/23 03:13:42;;;;;;;14.80;11.35;;;4.50;99.90;;;;;;4987933;28;20193;-73
2022/11/23 03:16:08;;;;;;;13.80;10.98;;;4.50;99.90;;;;;;4979834;28;20304;-74
2022/11/23 03:18:34;;;;;;;13.43;11.60;;;4.50;99.90;;;;;;4982336;28;20179;-73
2022/11/23 03:21:04;;;;;;;14.63;12.10;;;4.50;99.90;;;;;;4979786;28;20189;-72
2022/11/23 03:23:30;;;;;;;15.90;11.65;;;4.60;99.90;;;;;;4978643;28;20764;-72
2022/11/23 03:25:58;;;;;;;15.07;12.40;;;4.50;99.90;;;;;;4980675;28;20202;-72
2022/11/23 03:28:24;;;;;;;12.27;10.90;;;4.40;99.90;;;;;;4981529;28;20586;-73
2022/11/23 03:30:50;;;;;;;14.70;11.85;;;4.40;99.90;;;;;;4981580;28;20185;-73
2022/11/23 03:33:16;;;;;;;14.57;12.00;;;4.40;99.90;;;;;;4982807;28;20243;-72
2022/11/23 03:35:42;;;;;;;15.15;11.90;;;4.40;99.90;;;;;;4983432;28;20699;-72
2022/11/23 03:38:08;;;;;;;13.15;11.55;;;4.40;99.90;;;;;;4987953;28;20178;-73
2022/11/23 03:40:34;;;;;;;13.10;11.60;;;4.40;99.90;;;;;;4982331;28;20179;-73
2022/11/23 03:42:59;;;;;;;13.95;11.98;;;4.30;99.90;;;;;;4983515;28;20201;-72
2022/11/23 03:45:25;;;;;;;14.52;11.45;;;4.40;99.90;;;;;;4986061;28;20197;-72
2022/11/23 03:47:50;;;;;;;12.88;11.52;;;4.40;99.90;;;;;;4982617;28;20242;-72
2022/11/23 03:50:16;;;;;;;15.10;11.95;;;4.40;99.90;;;;;;4982844;28;20190;-72
2022/11/23 03:52:42;;;;;;;17.05;12.00;;;4.40;99.90;;;;;;4988311;28;20243;-73
2022/11/23 03:55:07;;;;;;;15.52;13.05;;;4.30;99.90;;;;;;4985813;28;20240;-72
2022/11/23 03:57:33;;;;;;;18.55;13.48;;;4.30;99.90;;;;;;4985061;28;20206;-72
2022/11/23 03:59:59;;;;;;;15.30;11.75;;;4.30;99.90;;;;;;4986409;28;20202;-72
2022/11/23 04:02:24;;;;;;;15.13;12.80;;;4.30;99.90;;;;;;4985579;28;20286;-72
2022/11/23 04:04:50;;;;;;;15.23;11.65;;;4.30;99.90;;;;;;4982243;28;20264;-72
2022/11/23 04:07:15;;;;;;;15.88;12.55;;;4.50;99.90;;;;;;4987122;28;20687;-72
2022/11/23 04:09:41;;;;;;;17.52;12.27;;;4.50;99.90;;;;;;4987302;28;20193;-73
2022/11/23 04:12:09;;;;;;;13.35;11.48;;;4.60;99.90;;;;;;4983114;28;20225;-73
2022/11/23 04:14:35;;;;;;;17.45;12.95;;;4.50;99.90;;;;;;4985822;28;20198;-72
2022/11/23 04:17:03;;;;;;;16.02;13.40;;;4.50;99.90;;;;;;4988866;28;20547;-72
2022/11/23 04:19:29;;;;;;;16.40;12.07;;;4.40;99.90;;;;;;4984876;28;20555;-72
2022/11/23 04:21:55;;;;;;;13.35;11.80;;;4.50;99.90;;;;;;4983145;28;20269;-73
2022/11/23 04:24:20;;;;;;;14.55;11.95;;;4.50;99.90;;;;;;4986207;28;20676;-73
2022/11/23 04:26:46;;;;;;;14.75;10.85;;;4.50;99.90;;;;;;4982383;28;20246;-72
2022/11/23 04:29:12;;;;;;;12.05;10.85;;;4.30;99.90;;;;;;4986940;28;20661;-72
2022/11/23 04:31:37;;;;;;;15.32;11.07;;;4.40;99.90;;;;;;4984138;28;20272;-72
2022/11/23 04:34:03;;;;;;;13.63;10.85;;;4.50;99.90;;;;;;4989210;28;20653;-72
2022/11/23 04:36:29;;;;;;;12.13;10.85;;;4.50;99.90;;;;;;4991745;28;20210;-73
2022/11/23 04:38:54;;;;;;;12.90;10.98;;;4.60;99.90;;;;;;4988068;28;20195;-73
2022/11/23 04:41:21;;;;;;;12.13;10.93;;;4.50;99.90;;;;;;5004432;28;20439;-72
2022/11/23 04:43:48;;;;;;;11.60;10.40;;;4.50;99.90;;;;;;4992483;28;20680;-72
2022/11/23 04:46:14;;;;;;;13.10;10.68;;;4.50;99.90;;;;;;4984551;28;20194;-72
2022/11/23 04:48:39;;;;;;;13.77;12.00;;;4.50;99.90;;;;;;4993013;28;20256;-72
2022/11/23 04:51:05;;;;;;;14.23;11.52;;;4.40;99.90;;;;;;4992966;28;20269;-73
2022/11/23 04:53:31;;;;;;;14.80;11.70;;;4.30;99.90;;;;;;4988715;28;20204;-73
2022/11/23 04:55:56;;;;;;;13.27;11.50;;;4.20;99.90;;;;;;4992187;28;20240;-72
2022/11/23 04:58:22;;;;;;;12.23;10.85;;;4.30;99.90;;;;;;4992551;28;20186;-72
2022/11/23 05:00:48;;;;;;;13.98;12.27;;;4.30;99.90;;;;;;4992757;28;20549;-73
2022/11/23 05:03:14;;;;;;;12.25;10.90;;;4.40;99.90;;;;;;4994953;28;20678;-72
2022/11/23 05:05:40;;;;;;;13.32;11.82;;;4.50;99.90;;;;;;4985973;28;20202;-73
2022/11/23 05:08:07;;;;;;;13.95;11.27;;;4.50;99.90;;;;;;4992489;28;20174;-73
2022/11/23 05:10:32;;;;;;;12.80;11.00;;;4.50;99.90;;;;;;4993146;28;20186;-73
2022/11/23 05:12:58;;;;;;;14.70;12.02;;;4.50;99.90;;;;;;4989918;28;20182;-73
2022/11/23 05:15:24;;;;;;;13.88;11.25;;;4.60;99.90;;;;;;4994610;28;20198;-74
2022/11/23 05:17:49;;;;;;;13.15;11.65;;;4.60;99.90;;;;;;4992636;28;20197;-74
2022/11/23 05:20:15;;;;;;;13.88;12.07;;;4.60;99.90;;;;;;4992877;28;20191;-73
2022/11/23 05:22:41;;;;;;;14.52;12.75;;;4.50;99.90;;;;;;4988210;28;20217;-73
2022/11/23 05:25:07;;;;;;;15.35;12.05;;;4.50;99.90;;;;;;4992004;28;20208;-73
2022/11/23 05:27:33;;;;;;;14.32;12.23;;;4.60;99.90;;;;;;4991300;28;20240;-73
2022/11/23 05:29:58;;;;;;;15.23;12.32;;;4.50;99.90;;;;;;4992565;28;20680;-73
2022/11/23 05:32:24;;;;;;;13.60;12.02;;;4.50;99.90;;;;;;4990196;28;20218;-73
2022/11/23 05:34:50;;;;;;;19.50;13.40;;;4.50;99.90;;;;;;4991809;28;20201;-73
2022/11/23 05:37:15;;;;;;;15.68;12.52;;;4.40;99.90;;;;;;4992188;28;20213;-73
2022/11/23 05:39:41;;;;;;;13.18;11.77;;;4.40;99.90;;;;;;4994552;28;20221;-73
2022/11/23 05:42:06;;;;;;;14.20;11.07;;;4.40;99.90;;;;;;4990332;28;20665;-73
2022/11/23 05:44:32;;;;;;;16.50;12.18;;;4.40;99.90;;;;;;4995212;28;20217;-73
2022/11/23 05:46:58;;;;;;;26.40;12.98;;;4.40;99.90;;;;;;4997013;28;20190;-72
2022/11/23 05:49:24;;;;;;;13.15;11.60;;;4.40;99.90;;;;;;4987831;28;20193;-72
2022/11/23 05:51:49;;;;;;;12.38;10.75;;;4.50;99.90;;;;;;4987836;28;20277;-72
2022/11/23 05:54:15;;;;;;;14.57;12.07;;;4.50;99.90;;;;;;4982715;28;20253;-73
2022/11/23 05:56:40;;;;;;;12.35;10.57;;;4.40;99.90;;;;;;4987480;28;20272;-73
2022/11/23 05:59:06;;;;;;;13.38;9.48;;;4.40;99.90;;;;;;4993951;28;20237;-73
2022/11/23 06:01:33;;;;;;;15.43;11.90;;;4.40;99.90;;;;;;4985130;28;20201;-73
2022/11/23 06:03:58;;;;;;;12.85;10.55;;;4.50;99.90;;;;;;4978904;28;20225;-73
2022/11/23 06:06:24;;;;;;;15.82;12.82;;;4.60;99.90;;;;;;4987214;28;20186;-72
2022/11/23 06:08:50;;;;;;;16.00;11.68;;;4.70;99.90;;;;;;4988332;28;20585;-73
2022/11/23 06:11:15;;;;;;;13.77;12.05;;;4.70;99.90;;;;;;4986062;28;20206;-73
2022/11/23 06:13:41;;;;;;;14.32;11.95;;;4.70;99.90;;;;;;4989355;28;20178;-73
2022/11/23 06:16:07;;;;;;;12.80;11.13;;;4.70;99.90;;;;;;4989729;28;20271;-73
2022/11/23 06:18:33;;;;;;;15.32;11.38;;;4.80;99.90;;;;;;4994794;28;20208;-73
2022/11/23 06:21:01;;;;;;;12.05;10.75;;;4.80;99.90;;;;;;4993982;28;20318;-76
2022/11/23 06:23:27;;;;;;;10.65;9.57;;;4.80;99.90;;;;;;5005959;28;20660;-74
2022/11/23 06:25:53;;;;;;;11.45;10.30;;;4.80;99.90;;;;;;4987520;28;20292;-74
2022/11/23 06:28:19;;;;;;;11.25;10.15;;;4.80;99.90;;;;;;4982254;28;20332;-75
2022/11/23 06:30:44;;;;;;;11.55;10.35;;;4.80;99.90;;;;;;4983775;28;20202;-76
2022/11/23 06:33:10;;;;;;;13.27;10.35;;;4.80;99.90;;;;;;4983805;28;20190;-76
2022/11/23 06:35:35;;;;;;;13.00;11.05;;;4.80;99.90;;;;;;4981475;28;20571;-76
2022/11/23 06:38:01;;;;;;;16.40;11.07;;;4.90;99.90;;;;;;4982457;28;20185;-73
2022/11/23 06:40:27;;;;;;;11.70;10.50;;;4.80;99.90;;;;;;4979968;28;20212;-74
2022/11/23 06:42:59;;;;;;;11.82;10.63;;;4.90;99.90;;;;;;4988358;28;20197;-74
2022/11/23 06:45:26;;;;;;;10.35;9.38;;;5.00;99.90;;;;;;4983276;28;20202;-75
2022/11/23 06:47:55;;;;;;;10.05;9.07;;;4.90;99.90;;;;;;4982895;28;20183;-74
2022/11/23 06:50:20;;;;;;;10.70;9.60;;;5.00;99.90;;;;;;4982610;28;20175;-74
2022/11/23 06:52:46;;;;;;;11.57;10.45;;;5.10;99.90;;;;;;4983010;28;20186;-74
2022/11/23 06:55:11;;;;;;;12.68;10.07;;;5.00;99.90;;;;;;4984606;28;20289;-74
2022/11/23 06:57:37;;;;;;;12.82;9.55;;;5.00;99.90;;;;;;4986700;28;20212;-74
2022/11/23 07:00:04;;;;;;;10.57;9.48;;;5.10;99.90;;;;;;4985575;28;20185;-74
2022/11/23 07:02:29;;;;;;;10.73;9.63;;;5.00;99.90;;;;;;4988145;28;20226;-75
2022/11/23 07:04:55;;;;;;;10.88;9.77;;;5.00;99.90;;;;;;4983649;28;20205;-74
2022/11/23 07:07:20;;;;;;;12.02;9.55;;;5.00;99.90;;;;;;4985712;28;20217;-74
2022/11/23 07:09:46;;;;;;;10.68;9.48;;;5.10;99.90;;;;;;4985153;28;20708;-75
2022/11/23 07:12:12;;;;;;;11.30;10.20;;;5.10;99.90;;;;;;4983485;28;20186;-75
2022/11/23 07:14:38;;;;;;;11.13;9.48;;;5.20;99.90;;;;;;4986262;28;20265;-76
2022/11/23 07:17:03;;;;;;;11.43;10.20;;;5.30;99.90;;;;;;4986940;28;20235;-74
2022/11/23 07:19:29;;;;;;;10.65;9.50;;;5.30;99.90;;;;;;4983760;28;20193;-71
2022/11/23 07:21:54;;;;;;;10.70;9.63;;;5.30;99.90;;;;;;4984668;28;20604;-71
2022/11/23 07:24:20;;;;;;;10.02;8.95;;;5.30;99.90;;;;;;4989730;28;20202;-71
2022/11/23 07:26:46;;;;;;;10.20;9.23;;;5.30;99.90;;;;;;4987841;28;20577;-71
2022/11/23 07:29:11;;;;;;;9.77;8.77;;;5.30;99.90;;;;;;4984311;28;20200;-71
2022/11/23 07:31:37;;;;;;;10.02;8.90;;;5.40;99.90;;;;;;4982165;28;20266;-71
2022/11/23 07:34:03;;;;;;;9.80;8.90;;;5.40;99.90;;;;;;4984559;28;20701;-71
2022/11/23 07:36:29;;;;;;;10.52;9.52;;;5.40;99.90;;;;;;4981318;28;20205;-73
2022/11/23 07:38:55;;;;;;;10.00;9.02;;;5.50;99.90;;;;;;4989911;28;20190;-73
2022/11/23 07:41:20;;;;;;;9.50;8.60;;;5.50;99.90;;;;;;4981164;28;20237;-72
2022/11/23 07:43:46;;;;;;;10.10;9.15;;;5.60;99.90;;;;;;4980600;28;20190;-72
2022/11/23 07:46:12;;;;;;;10.05;9.13;;;5.70;99.90;;;;;;4982297;28;20190;-72
2022/11/23 07:48:37;;;;;;;9.93;9.00;;;5.70;99.90;;;;;;4983504;28;20556;-72
2022/11/23 07:51:03;;;;;;;10.52;9.50;;;5.70;99.90;;;;;;4994437;28;20667;-72
2022/11/23 07:53:28;;;;;;;10.82;9.77;;;5.70;99.90;;;;;;4995712;28;20189;-71
2022/11/23 07:55:56;;;;;;;9.57;8.77;;;5.80;99.90;;;;;;4995553;28;20232;-71
2022/11/23 07:58:23;;;;;;;10.93;9.82;;;5.80;99.90;;;;;;5004250;28;20201;-71
2022/11/23 08:00:49;;;;;;;10.85;9.75;;;5.60;99.90;;;;;;4990272;28;20186;-75
2022/11/23 08:03:15;;;;;;;11.15;10.05;;;5.60;99.90;;;;;;4993998;28;20614;-72
2022/11/23 08:05:41;;;;;;;10.63;9.63;;;5.50;99.90;;;;;;4993977;28;20209;-72
2022/11/23 08:08:06;;;;;;;11.20;10.00;;;5.60;99.90;;;;;;4993202;28;20182;-74
2022/11/23 08:10:32;;;;;;;12.63;11.20;;;5.60;99.90;;;;;;4992881;28;20174;-73
2022/11/23 08:13:05;;;;;;;10.65;9.57;;;5.80;99.90;;;;;;4993252;28;20182;-75
2022/11/23 08:15:31;;;;;;;11.10;10.00;;;5.80;99.90;;;;;;5007882;28;20259;-76
2022/11/23 08:17:59;;;;;;;10.77;9.68;;;5.80;99.90;;;;;;5001671;28;20178;-75
2022/11/23 08:20:25;;;;;;;11.32;10.20;;;5.90;99.90;;;;;;4993226;28;20653;-76
2022/11/23 08:22:54;;;;;;;13.38;10.43;;;6.00;99.90;;;;;;4998200;28;20165;-76
2022/11/23 08:25:23;;;;;;;10.65;9.25;;;6.10;99.90;;;;;;4984408;28;20198;-75
2022/11/23 08:28:00;;;;;;;11.98;10.73;;;6.20;99.90;;;;;;4995262;28;20244;-77
2022/11/23 08:30:26;;;;;;;11.20;9.73;;;6.10;99.90;;;;;;4992550;28;20562;-76
2022/11/23 08:32:52;;;;;;;11.50;10.05;;;6.20;99.90;;;;;;4994200;28;20268;-76
2022/11/23 08:35:18;;;;;;;11.65;9.63;;;6.30;99.90;;;;;;4991759;28;20297;-75
2022/11/23 08:37:43;;;;;;;12.70;11.13;;;6.50;99.90;;;;;;4995168;28;20680;-76
2022/11/23 08:40:09;;;;;;;11.60;10.10;;;6.60;99.90;;;;;;4997430;28;20182;-75
2022/11/23 08:42:35;;;;;;;13.73;11.75;;;6.60;99.90;;;;;;4993957;28;20189;-77
2022/11/23 08:45:03;;;;;;;12.45;11.20;;;6.60;99.90;;;;;;4997481;28;20201;-76
2022/11/23 08:47:29;;;;;;;11.82;10.63;;;6.60;99.90;;;;;;4981356;28;20182;-78
2022/11/23 08:49:55;;;;;;;12.18;10.70;;;6.60;99.90;;;;;;4985876;28;20204;-75
2022/11/23 08:52:20;;;;;;;10.98;9.88;;;6.70;99.90;;;;;;4982781;28;20193;-74
2022/11/23 08:54:46;;;;;;;11.02;10.00;;;6.80;99.90;;;;;;4987826;28;20202;-74
2022/11/23 08:57:12;;;;;;;11.13;10.02;;;6.90;99.90;;;;;;4988175;28;20205;-73
2022/11/23 08:59:37;;;;;;;11.35;10.25;;;7.00;99.90;;;;;;5004777;28;20202;-73
2022/11/23 09:02:03;;;;;;;11.20;10.13;;;7.10;99.90;;;;;;4994457;28;20815;-73
2022/11/23 09:04:29;;;;;;;11.98;10.73;;;7.00;99.90;;;;;;4992618;28;20198;-74
2022/11/23 09:06:55;;;;;;;12.13;10.93;;;7.00;99.90;;;;;;4993151;28;20736;-73
2022/11/23 09:09:21;;;;;;;13.85;11.40;;;7.00;99.90;;;;;;4983435;28;20285;-74
2022/11/23 09:11:47;;;;;;;13.13;11.82;;;7.10;99.90;;;;;;4993853;28;20182;-74
2022/11/23 09:14:12;;;;;;;12.73;11.48;;;7.10;99.90;;;;;;4993974;28;20288;-75
2022/11/23 09:16:38;;;;;;;12.82;11.52;;;7.20;99.90;;;;;;4989614;28;20209;-73
2022/11/23 09:19:06;;;;;;;13.60;11.45;;;7.20;99.90;;;;;;5008071;28;20169;-74
2022/11/23 09:21:34;;;;;;;11.05;9.93;;;7.30;99.90;;;;;;4998862;28;20637;-75
2022/11/23 09:24:00;;;;;;;12.27;10.30;;;7.40;99.90;;;;;;4988842;28;20182;-75
2022/11/23 09:26:26;;;;;;;13.30;11.90;;;7.50;99.90;;;;;;4994216;28;20181;-75
2022/11/23 09:28:52;;;;;;;11.25;10.25;;;7.60;99.90;;;;;;4999740;28;20185;-75
2022/11/23 09:31:17;;;;;;;11.52;10.27;;;7.80;99.90;;;;;;4992120;28;20200;-75
2022/11/23 09:33:43;;;;;;;11.73;10.52;;;8.10;99.90;;;;;;4985656;28;20264;-75
2022/11/23 09:36:09;;;;;;;11.50;10.50;;;8.40;99.90;;;;;;4983780;28;20719;-74
2022/11/23 09:38:34;;;;;;;10.95;9.85;;;8.50;99.90;;;;;;4992437;28;20189;-74
2022/11/23 09:41:06;;;;;;;11.50;10.25;;;8.40;99.90;;;;;;4995562;28;20197;-75
2022/11/23 09:43:40;;;;;;;11.80;10.60;;;8.40;99.90;;;;;;4987858;28;20249;-74
2022/11/23 09:46:38;;;;;;;13.02;10.93;;;8.30;99.90;;;;;;4988269;28;20202;-76
2022/11/23 09:49:15;;;;;;;11.73;10.52;;;8.10;99.90;;;;;;4959049;28;20669;-76
2022/11/23 09:51:43;;;;;;;12.43;10.93;;;8.30;99.90;;;;;;4984526;28;20192;-78
2022/11/23 09:54:27;;;;;;;12.00;10.80;;;8.60;99.90;;;;;;4985604;28;20686;-77
2022/11/23 09:56:55;;;;;;;12.68;11.38;;;8.70;99.90;;;;;;4985542;28;20549;-78
2022/11/23 09:59:42;;;;;;;11.57;10.45;;;8.60;99.90;;;;;;4991743;28;20183;-75
2022/11/23 10:02:21;;;;;;;13.38;11.52;;;8.70;99.90;;;;;;4989861;28;20256;-74
2022/11/23 10:04:47;;;;;;;11.80;10.68;;;8.90;99.90;;;;;;4992798;28;20197;-74
2022/11/23 10:07:28;;;;;;;12.43;10.98;;;9.00;99.90;;;;;;4996458;28;20546;-74
2022/11/23 10:10:24;;;;;;;13.40;11.77;;;9.10;99.90;;;;;;4992466;28;20193;-75
2022/11/23 10:13:20;;;;;;;10.55;9.63;;;9.00;99.90;;;;;;4984190;28;20240;-75
2022/11/23 10:15:52;;;;;;;11.55;10.50;;;9.10;99.90;;;;;;4988719;28;20193;-75
2022/11/23 10:18:26;;;;;;;12.35;11.23;;;9.20;99.90;;;;;;4993448;28;20190;-75
2022/11/23 10:21:13;;;;;;;14.50;11.35;;;9.10;99.90;;;;;;4994850;28;20663;-76
2022/11/23 10:23:47;;;;;;;12.43;10.77;;;9.00;99.90;;;;;;4994288;28;20238;-76
2022/11/23 10:26:16;;;;;;;14.63;12.57;;;9.20;99.90;;;;;;4991990;28;20229;-75
2022/11/23 10:28:42;;;;;;;10.90;9.93;;;9.30;99.90;;;;;;4989827;28;20182;-75
2022/11/23 10:31:18;;;;;;;11.50;10.30;;;9.40;99.90;;;;;;4994844;28;20186;-76
2022/11/23 10:34:11;;;;;;;11.40;10.40;;;9.30;99.90;;;;;;4995661;28;20181;-75
2022/11/23 10:36:38;;;;;;;11.23;10.05;;;9.30;99.90;;;;;;4992350;28;20225;-75
2022/11/23 10:39:22;;;;;;;13.02;9.52;;;9.30;99.90;;;;;;4992660;28;20197;-75
2022/11/23 10:41:51;;;;;;;24.65;19.25;;;9.20;99.90;;;;;;4995450;28;20216;-76
2022/11/23 10:44:31;;;;;;;14.38;11.45;;;9.30;99.90;;;;;;4994085;28;20280;-75
2022/11/23 10:46:57;;;;;;;13.77;12.38;;;9.30;99.90;;;;;;4988102;28;20216;-75
2022/11/23 10:49:29;;;;;;;11.38;10.38;;;9.10;99.90;;;;;;4988066;28;20705;-75
2022/11/23 10:51:59;;;;;;;11.82;10.25;;;9.00;99.90;;;;;;4987619;28;20205;-75
2022/11/23 10:54:55;;;;;;;11.93;10.82;;;8.80;99.90;;;;;;4990952;28;20214;-75
2022/11/23 10:57:26;;;;;;;10.98;9.88;;;8.80;99.90;;;;;;4986625;28;20257;-75
2022/11/23 11:00:18;;;;;;;11.63;10.52;;;8.80;99.90;;;;;;4995317;28;20177;-76
2022/11/23 11:02:56;;;;;;;13.40;10.80;;;8.70;99.90;;;;;;4984478;28;20577;-75
2022/11/23 11:05:48;;;;;;;12.20;11.02;;;8.60;99.90;;;;;;4994307;28;20578;-74
2022/11/23 11:08:20;;;;;;;11.88;10.82;;;8.50;99.90;;;;;;4988428;28;20212;-74
2022/11/23 11:11:01;;;;;;;11.95;10.85;;;8.80;99.90;;;;;;4993732;28;20618;-74
2022/11/23 11:13:28;;;;;;;10.90;9.90;;;9.00;99.90;;;;;;4986225;28;20182;-74
2022/11/23 11:16:16;;;;;;;11.98;10.85;;;9.30;99.90;;;;;;4995442;28;20198;-74
2022/11/23 11:18:42;;;;;;;11.48;10.27;;;9.60;99.90;;;;;;4990244;28;20178;-73
2022/11/23 11:21:21;;;;;;;11.82;10.73;;;9.80;99.90;;;;;;4986561;28;20870;-73
2022/11/23 11:23:58;;;;;;;11.77;10.57;;;9.80;99.90;;;;;;4976779;28;20592;-78
2022/11/23 11:26:25;;;;;;;12.23;10.38;;;10.00;99.90;;;;;;4993061;28;20195;-76
2022/11/23 11:28:54;;;;;;;11.20;9.70;;;10.10;99.90;;;;;;4993646;28;20181;-76
2022/11/23 11:31:37;;;;;;;13.55;10.88;;;10.20;99.90;;;;;;4999553;28;20656;-76
2022/11/23 11:34:36;;;;;;;11.38;10.23;;;10.60;99.90;;;;;;4989184;28;20178;-77
2022/11/23 11:37:26;;;;;;;10.85;9.85;;;11.10;99.90;;;;;;5005809;28;20201;-81
2022/11/23 11:40:17;;;;;;;17.10;11.85;;;11.70;99.90;;;;;;5001165;28;20204;-81
2022/11/23 11:43:02;;;;;;;13.75;12.25;;;12.50;99.90;;;;;;5014978;28;20189;-81
2022/11/23 11:45:33;;;;;;;13.30;10.65;;;13.40;99.90;;;;;;5003860;28;20261;-81
2022/11/23 11:48:22;;;;;;;10.32;9.40;;;13.70;99.90;;;;;;5003864;28;20186;-82
2022/11/23 11:50:57;;;;;;;10.77;9.88;;;13.80;99.90;;;;;;4956347;28;20234;-82
2022/11/23 11:53:28;;;;;;;11.50;9.77;;;14.20;99.90;;;;;;5009633;28;20181;-81
2022/11/23 11:56:03;;;;;;;11.23;10.10;;;14.50;99.90;;;;;;5001811;28;20210;-81
2022/11/23 11:58:31;;;;;;;13.77;11.18;;;14.40;99.90;;;;;;5004892;28;20181;-82
2022/11/23 12:01:21;;;;;;;12.73;10.30;;;14.30;99.90;;;;;;5001881;28;20272;-82
2022/11/23 12:03:54;;;;;;;12.75;11.30;;;13.90;99.90;;;;;;4996384;28;20201;-76
2022/11/23 12:06:41;;;;;;;11.13;9.88;;;13.60;99.90;;;;;;4978470;28;20200;-76
2022/11/23 12:09:16;;;;;;;10.35;9.38;;;13.20;99.90;;;;;;4976216;28;20179;-75
2022/11/23 12:11:42;;;;;;;11.35;10.20;;;12.80;99.90;;;;;;4986478;28;20270;-75
2022/11/23 12:14:11;;;;;;;11.95;10.75;;;12.30;99.90;;;;;;4976183;28;20293;-75
2022/11/23 12:16:40;;;;;;;13.85;11.82;;;12.00;99.90;;;;;;4985368;28;20631;-76
2022/11/23 12:19:25;;;;;;;11.38;10.05;;;11.70;99.90;;;;;;4991940;28;20814;-75
2022/11/23 12:22:08;;;;;;;11.50;10.38;;;11.20;99.90;;;;;;4982416;28;20193;-76
2022/11/23 12:24:57;;;;;;;11.07;10.07;;;11.00;99.90;;;;;;4986092;28;20202;-75
2022/11/23 12:27:42;;;;;;;11.02;9.93;;;11.30;99.90;;;;;;4985189;28;20674;-75
2022/11/23 12:30:42;;;;;;;13.23;10.00;;;12.60;99.90;;;;;;4990878;28;20194;-75
2022/11/23 12:33:14;;;;;;;11.60;9.50;;;14.10;99.90;;;;;;4982162;28;20186;-75
2022/11/23 12:36:01;;;;;;;10.98;9.98;;;15.40;99.90;;;;;;4981866;28;20202;-77
2022/11/23 12:38:33;;;;;;;10.48;9.50;;;16.30;99.90;;;;;;4986563;28;20260;-75
2022/11/23 12:41:07;;;;;;;10.75;9.75;;;16.90;99.90;;;;;;4985576;28;20214;-75
2022/11/23 12:43:51;;;;;;;15.13;11.13;;;16.70;99.90;;;;;;4992442;28;20204;-76
2022/11/23 12:46:36;;;;;;;14.60;10.25;;;16.20;99.90;;;;;;4982215;28;20182;-75
2022/11/23 12:49:32;;;;;;;12.35;11.13;;;15.90;99.90;;;;;;4989463;28;20726;-75